Time;durP1;ratioP1;P1;durP2;ratioP2;P2;SDS_P1;SDS_P2;PMS_P1;PMS_P2;Temp;Humidity;BMP_temperature;BMP_pressure;BME280_temperature;BME280_humidity;BME280_pressure;Samples;Min_cycle;Max_cycle;Signal;HPM_P1;HPM_P2
2021/09/30 05:16:58;;;;;;;;;5.75;3.50;;;;;10.65;66.97;102708.41;5630051;22;45846;-86
2021/09/30 05:19:23;;;;;;;;;4.00;4.00;;;;;10.67;66.71;102708.38;5069574;28;46743;-86
2021/09/30 05:21:49;;;;;;;;;5.00;4.75;;;;;10.65;66.60;102715.41;5062902;28;45461;-87
2021/09/30 05:24:14;;;;;;;;;5.00;5.00;;;;;10.67;66.75;102724.16;5063333;28;45387;-87
2021/09/30 05:26:40;;;;;;;;;7.50;6.25;;;;;10.66;66.86;102718.06;5057434;28;46930;-87
2021/09/30 05:29:07;;;;;;;;;5.00;4.25;;;;;10.62;66.93;102712.78;5063711;28;46675;-86
2021/09/30 05:31:33;;;;;;;;;6.00;5.75;;;;;10.68;66.73;102723.28;5080793;28;45405;-87
2021/09/30 05:33:59;;;;;;;;;7.00;4.25;;;;;10.69;66.85;102725.91;5079343;28;45536;-86
2021/09/30 05:36:24;;;;;;;;;4.50;4.50;;;;;10.68;66.80;102720.66;5062643;28;47010;-86
2021/09/30 05:38:50;;;;;;;;;5.25;4.00;;;;;10.67;66.81;102718.91;5065214;28;45462;-87
2021/09/30 05:41:16;;;;;;;;;5.00;4.50;;;;;10.70;66.78;102724.16;5075503;28;45369;-87
2021/09/30 05:43:47;;;;;;;;;6.50;6.00;;;;;10.72;66.94;102724.19;5060333;28;45448;-87
2021/09/30 05:46:15;;;;;;;;;10.25;6.50;;;;;10.72;66.78;102719.78;5081132;28;45268;-87
2021/09/30 05:48:40;;;;;;;;;6.00;5.25;;;;;10.70;66.59;102718.91;5061225;28;47128;-87
2021/09/30 05:51:06;;;;;;;;;5.50;4.75;;;;;10.69;66.96;102711.91;5062073;28;45431;-86
2021/09/30 05:53:31;;;;;;;;;4.00;4.00;;;;;10.71;66.71;102725.03;5052214;28;45449;-85
2021/09/30 05:55:56;;;;;;;;;6.50;6.50;;;;;10.68;66.87;102725.94;5073017;28;45362;-87
2021/09/30 05:58:22;;;;;;;;;6.25;5.00;;;;;10.66;66.83;102727.69;5076624;28;45379;-86
2021/09/30 06:14:36;;;;;;;;;4.75;4.75;;;;;10.69;66.70;102727.69;5019565;28;45399;-87
2021/09/30 06:17:03;;;;;;;;;6.00;5.00;;;;;10.69;66.94;102725.06;5057489;28;45964;-87
2021/09/30 06:19:29;;;;;;;;;7.25;6.00;;;;;10.74;67.14;102720.63;5060923;28;47250;-87
2021/09/30 06:21:54;;;;;;;;;6.75;5.00;;;;;10.72;66.90;102727.66;5079736;28;45439;-88
2021/09/30 06:24:21;;;;;;;;;8.00;7.00;;;;;10.75;66.67;102725.03;5061535;28;45430;-88
2021/09/30 06:26:48;;;;;;;;;10.00;6.50;;;;;10.83;67.24;102732.03;5084578;27;45656;-88
2021/09/30 06:29:14;;;;;;;;;5.75;5.00;;;;;10.84;67.03;102731.16;5048045;28;47113;-88
2021/09/30 06:31:40;;;;;;;;;7.50;4.75;;;;;10.84;67.09;102728.53;5067334;28;45460;-88
2021/09/30 06:34:06;;;;;;;;;6.00;4.00;;;;;10.88;67.12;102725.00;5064770;28;45279;-87
2021/09/30 06:36:32;;;;;;;;;7.75;7.00;;;;;10.90;67.23;102728.50;5054820;28;47034;-88
2021/09/30 06:38:57;;;;;;;;;7.25;6.75;;;;;10.87;67.12;102729.41;5074758;28;46463;-88
2021/09/30 06:41:23;;;;;;;;;7.00;5.00;;;;;10.90;67.10;102733.78;5056360;28;45270;-87
2021/09/30 06:43:48;;;;;;;;;6.75;5.25;;;;;10.92;66.99;102726.75;5072977;28;45473;-87
2021/09/30 06:46:13;;;;;;;;;7.50;5.00;;;;;10.92;67.15;102729.38;5073809;28;47061;-88
2021/09/30 06:48:39;;;;;;;;;5.00;5.00;;;;;10.91;67.19;102717.13;5059671;28;47377;-88
2021/09/30 06:51:04;;;;;;;;;6.00;5.50;;;;;10.93;67.40;102725.88;5077302;28;45470;-87
2021/09/30 06:53:30;;;;;;;;;5.50;5.50;;;;;10.93;67.34;102720.63;5061172;28;45801;-87
2021/09/30 06:56:00;;;;;;;;;8.50;7.00;;;;;10.95;67.24;102724.13;5063989;28;45390;-87
2021/09/30 06:58:26;;;;;;;;;10.25;8.50;;;;;10.96;67.35;102719.75;5049536;28;47979;-87
2021/09/30 07:00:56;;;;;;;;;7.00;6.00;;;;;10.96;67.11;102719.75;5065220;28;45187;-87
2021/09/30 07:03:26;;;;;;;;;8.50;7.50;;;;;10.96;67.57;102725.88;5075204;28;45251;-88
2021/09/30 07:05:52;;;;;;;;;7.00;6.25;;;;;10.96;67.01;102723.25;5074627;28;45451;-92
2021/09/30 07:08:17;;;;;;;;;6.25;6.25;;;;;11.03;67.26;102725.00;5063040;28;47449;-96
2021/09/30 07:10:43;;;;;;;;;6.25;6.25;;;;;11.03;67.38;102705.69;5061156;28;45247;-95
2021/09/30 07:13:08;;;;;;;;;8.50;7.25;;;;;11.06;67.18;102710.94;5086078;27;45476;-95
2021/09/30 07:15:34;;;;;;;;;9.00;7.00;;;;;11.09;67.38;102699.50;5074102;28;45840;-95
2021/09/30 07:18:12;;;;;;;;;6.75;5.00;;;;;11.10;67.43;102709.16;5043445;28;47131;-95
2021/09/30 07:20:38;;;;;;;;;8.00;5.50;;;;;11.14;67.30;102703.00;5049055;28;45860;-95
2021/09/30 07:23:04;;;;;;;;;7.00;5.00;;;;;11.19;67.49;102706.50;5069982;28;45250;-94
2021/09/30 07:25:29;;;;;;;;;5.50;4.50;;;;;11.22;67.19;102701.22;5079582;28;46139;-94
2021/09/30 07:27:54;;;;;;;;;6.25;5.75;;;;;11.33;67.07;102716.94;5057604;28;47035;-95
2021/09/30 07:30:20;;;;;;;;;5.00;5.00;;;;;11.33;67.16;102718.75;5051659;28;45500;-95
2021/09/30 07:32:45;;;;;;;;;7.50;6.00;;;;;11.40;67.52;102723.09;5051043;28;45250;-95
2021/09/30 07:35:11;;;;;;;;;6.75;6.00;;;;;11.46;67.38;102725.69;5058575;28;47226;-95
2021/09/30 07:37:36;;;;;;;;;8.50;7.25;;;;;11.49;67.20;102730.06;5047154;28;47081;-95
2021/09/30 07:40:04;;;;;;;;;8.00;7.00;;;;;11.56;67.17;102736.16;5052308;28;45313;-95
2021/09/30 07:42:30;;;;;;;;;6.25;5.75;;;;;11.58;67.16;102732.66;5055914;28;45901;-95
2021/09/30 07:44:55;;;;;;;;;10.50;6.00;;;;;11.63;67.14;102735.25;5072606;28;46417;-96
2021/09/30 07:47:21;;;;;;;;;9.00;7.25;;;;;11.62;66.67;102722.09;5054045;28;48265;-94
2021/09/30 07:49:46;;;;;;;;;9.00;6.75;;;;;11.69;67.09;102727.34;5058456;28;45816;-96
2021/09/30 07:52:12;;;;;;;;;5.50;5.50;;;;;11.67;67.24;102713.31;5053042;28;44891;-96
2021/09/30 07:54:37;;;;;;;;;10.00;8.00;;;;;11.75;67.84;102733.44;5054493;28;46424;-96
2021/09/30 07:57:03;;;;;;;;;9.25;5.75;;;;;11.79;67.56;102725.53;5058593;28;47112;-96
2021/09/30 07:59:28;;;;;;;;;8.50;7.00;;;;;11.85;67.11;102724.63;5052185;28;46919;-94
2021/09/30 08:01:54;;;;;;;;;5.00;3.50;;;;;11.90;67.34;102725.44;5051500;28;45603;-96
2021/09/30 08:04:19;;;;;;;;;7.25;5.00;;;;;11.94;67.68;102723.66;5053721;28;46809;-94
2021/09/30 08:06:45;;;;;;;;;5.75;5.75;;;;;11.97;67.12;102721.03;5051584;28;47610;-95
2021/09/30 08:09:10;;;;;;;;;3.00;3.00;;;;;11.99;67.00;102718.38;5054583;27;46049;-95
2021/09/30 08:11:36;;;;;;;;;6.75;5.50;;;;;12.09;67.02;102729.72;5052902;28;45501;-96
2021/09/30 08:14:02;;;;;;;;;4.75;4.00;;;;;12.15;66.50;102720.03;5049520;28;45928;-96
2021/09/30 08:16:27;;;;;;;;;5.00;4.50;;;;;12.24;66.77;102724.38;5049073;28;47009;-95
2021/09/30 08:18:55;;;;;;;;;6.75;5.50;;;;;12.31;66.65;102722.53;5058579;28;45814;-95
2021/09/30 08:21:21;;;;;;;;;4.25;4.00;;;;;12.36;66.84;102720.75;5057063;28;45374;-95
2021/09/30 08:23:47;;;;;;;;;8.25;6.00;;;;;12.40;66.82;102718.06;5052077;28;46532;-95
2021/09/30 08:26:18;;;;;;;;;6.00;4.50;;;;;12.46;66.75;102723.28;5055538;28;47333;-95
2021/09/30 08:28:44;;;;;;;;;8.25;5.00;;;;;12.49;65.58;102728.56;5060814;28;45429;-96
2021/09/30 08:31:09;;;;;;;;;7.25;5.00;;;;;12.51;65.00;102724.13;5044930;28;45416;-96
2021/09/30 08:33:40;;;;;;;;;5.00;4.25;;;;;12.54;64.88;102725.88;5049666;28;46240;-95
2021/09/30 08:36:08;;;;;;;;;5.00;3.00;;;;;12.59;65.04;102724.91;5061650;28;47318;-96
2021/09/30 08:38:33;;;;;;;;;7.00;5.75;;;;;12.65;64.95;102728.38;5075556;28;45215;-94
2021/09/30 08:40:59;;;;;;;;;6.25;4.75;;;;;12.67;65.28;102722.22;5049962;28;45452;-95
2021/09/30 08:43:24;;;;;;;;;4.75;3.75;;;;;12.74;65.37;102725.66;5061721;28;45840;-94
2021/09/30 08:45:50;;;;;;;;;5.00;3.00;;;;;12.77;65.14;102723.00;5052928;28;48174;-96
2021/09/30 08:48:16;;;;;;;;;8.25;3.00;;;;;12.85;64.83;102725.56;5051697;28;46142;-95
2021/09/30 08:50:41;;;;;;;;;9.25;5.25;;;;;12.94;64.78;102724.56;5061969;28;46132;-96
2021/09/30 08:53:09;;;;;;;;;3.00;2.00;;;;;12.99;64.71;102720.13;5053881;28;47010;-95
2021/09/30 08:55:35;;;;;;;;;3.75;2.25;;;;;13.02;64.75;102706.88;5058727;28;47010;-96
2021/09/30 08:58:02;;;;;;;;;3.00;2.00;;;;;13.10;64.60;102708.56;5053712;28;45798;-96
2021/09/30 09:00:31;;;;;;;;;2.75;2.75;;;;;13.14;63.61;102705.88;5062443;28;45473;-95
2021/09/30 09:02:57;;;;;;;;;1.00;1.00;;;;;13.21;63.25;102706.66;5064951;28;45885;-96
2021/09/30 09:05:23;;;;;;;;;6.00;3.25;;;;;13.26;64.28;102704.84;5053103;28;47142;-94
2021/09/30 09:08:00;;;;;;;;;2.00;2.00;;;;;13.34;63.69;102703.84;5079314;28;45404;-96
2021/09/30 09:10:31;;;;;;;;;3.50;2.25;;;;;13.35;63.92;102687.13;5059556;28;45275;-96
2021/09/30 09:13:09;;;;;;;;;3.00;2.75;;;;;13.43;62.78;102687.03;5050840;28;47194;-89
2021/09/30 09:15:38;;;;;;;;;3.75;3.50;;;;;13.50;63.37;102684.28;5062389;27;47901;-96
2021/09/30 09:18:16;;;;;;;;;2.50;2.50;;;;;13.56;63.13;102690.34;5064479;28;45761;-96
2021/09/30 09:20:43;;;;;;;;;4.75;2.50;;;;;13.61;62.51;102684.16;5086386;28;45440;-96
2021/09/30 09:23:10;;;;;;;;;2.00;2.00;;;;;13.68;63.00;102684.94;5066983;28;46987;-96
2021/09/30 09:25:36;;;;;;;;;4.00;2.00;;;;;13.71;63.19;102676.97;5061656;28;46988;-96
2021/09/30 09:28:01;;;;;;;;;2.00;2.00;;;;;13.79;63.33;102681.25;5049535;28;45340;-96
2021/09/30 09:30:27;;;;;;;;;2.25;0.50;;;;;13.85;63.08;102675.88;5077018;28;45379;-96
2021/09/30 09:33:06;;;;;;;;;1.50;1.50;;;;;13.91;63.10;102685.47;5054888;28;46110;-96
2021/09/30 09:36:13;;;;;;;;;2.75;2.25;;;;;13.99;63.54;102682.72;5045923;28;47310;-95
2021/09/30 09:38:41;;;;;;;;;1.00;0.50;;;;;14.06;63.64;102685.22;5040167;28;46029;-96
2021/09/30 09:41:06;;;;;;;;;2.00;1.25;;;;;14.12;62.69;102678.09;5064814;28;46975;-95
2021/09/30 09:43:41;;;;;;;;;1.00;1.00;;;;;14.19;62.36;102669.16;5068965;28;45808;-96
2021/09/30 09:46:08;;;;;;;;;1.00;1.00;;;;;14.24;62.16;102666.44;5065103;27;47396;-96
2021/09/30 09:48:35;;;;;;;;;1.00;1.00;;;;;14.31;62.56;102680.41;5068580;28;45846;-95
2021/09/30 09:51:09;;;;;;;;;3.50;2.25;;;;;14.34;62.11;102678.59;5054373;28;45303;-96
2021/09/30 09:53:35;;;;;;;;;2.25;2.00;;;;;14.36;62.07;102667.97;5064769;28;47052;-96
2021/09/30 09:56:13;;;;;;;;;1.75;1.75;;;;;14.43;62.15;102672.25;5046626;28;47269;-96
2021/09/30 09:58:43;;;;;;;;;1.25;1.25;;;;;14.49;61.54;102673.94;5052223;28;45429;-96
2021/09/30 10:01:09;;;;;;;;;2.00;1.00;;;;;14.52;61.09;102666.78;5065038;28;45405;-96
2021/09/30 10:03:34;;;;;;;;;1.00;1.00;;;;;14.59;61.46;102667.53;5065603;28;45768;-96
2021/09/30 10:06:03;;;;;;;;;0.00;0.00;;;;;14.61;61.15;102667.53;5064371;28;47067;-94
2021/09/30 10:08:29;;;;;;;;;0.00;0.00;;;;;14.64;60.95;102667.47;5058172;28;45445;-96
2021/09/30 10:10:56;;;;;;;;;0.00;0.00;;;;;14.70;60.79;102659.41;5056812;28;45267;-95
2021/09/30 10:13:26;;;;;;;;;0.75;0.75;;;;;14.73;60.89;102648.75;5077188;28;46318;-95
2021/09/30 10:15:56;;;;;;;;;0.00;0.00;;;;;14.83;60.88;102653.88;5059155;28;46815;-95
2021/09/30 10:18:24;;;;;;;;;1.75;1.00;;;;;14.85;60.70;102655.63;5064262;28;45312;-95
2021/09/30 10:20:51;;;;;;;;;2.25;0.50;;;;;14.93;60.11;102659.88;5064685;28;45409;-96
2021/09/30 10:23:25;;;;;;;;;1.25;1.25;;;;;14.91;60.21;102645.81;5075537;28;46156;-96
2021/09/30 10:25:52;;;;;;;;;2.50;1.75;;;;;14.98;60.75;102650.06;5074984;28;45404;-95
2021/09/30 10:28:19;;;;;;;;;0.50;0.00;;;;;15.01;60.15;102644.72;5057736;28;45339;-95
2021/09/30 10:30:47;;;;;;;;;2.75;1.00;;;;;15.03;59.87;102642.91;5055157;28;45393;-95
2021/09/30 10:33:15;;;;;;;;;2.00;1.00;;;;;15.09;60.48;102649.81;5050516;28;46326;-95
2021/09/30 10:35:44;;;;;;;;;3.25;1.00;;;;;15.07;59.74;102644.56;5077635;28;47881;-96
2021/09/30 10:38:31;;;;;;;;;0.00;0.00;;;;;15.15;59.73;102651.47;5056790;28;45176;-95
2021/09/30 10:41:00;;;;;;;;;2.50;2.50;;;;;15.21;59.56;102653.97;5053070;28;45271;-95
2021/09/30 10:43:27;;;;;;;;;1.50;1.50;;;;;15.24;59.78;102653.91;5063468;28;46364;-94
2021/09/30 10:45:52;;;;;;;;;0.25;0.25;;;;;15.29;59.77;102640.56;5059872;28;47238;-94
2021/09/30 10:48:24;;;;;;;;;0.00;0.00;;;;;15.35;59.33;102639.56;5060138;28;45433;-95
2021/09/30 10:50:52;;;;;;;;;0.75;0.00;;;;;15.37;58.70;102641.28;5063514;28;45453;-95
2021/09/30 10:53:19;;;;;;;;;1.00;1.00;;;;;15.34;58.19;102643.09;5064690;28;46002;-95
2021/09/30 10:55:45;;;;;;;;;1.75;1.25;;;;;15.37;57.63;102641.28;5052014;28;47620;-95
2021/09/30 10:58:22;;;;;;;;;0.00;0.00;;;;;15.37;57.00;102635.97;5070057;28;45447;-94
2021/09/30 11:00:58;;;;;;;;;0.00;0.00;;;;;15.40;57.00;102637.69;5061561;28;45387;-95
2021/09/30 11:03:24;;;;;;;;;1.00;1.00;;;;;15.41;57.15;102626.16;5048109;28;45703;-95
2021/09/30 11:06:14;;;;;;;;;0.00;0.00;;;;;15.47;57.52;102625.16;5054358;28;47301;-95
2021/09/30 11:08:40;;;;;;;;;0.00;0.00;;;;;15.50;58.33;102615.38;5062940;28;45307;-94
2021/09/30 11:11:06;;;;;;;;;2.25;0.00;;;;;15.55;56.85;102609.09;5043411;28;45433;-95
2021/09/30 11:13:39;;;;;;;;;1.25;0.25;;;;;15.58;56.00;102611.66;5059867;28;46202;-95
2021/09/30 11:16:20;;;;;;;;;0.00;0.00;;;;;15.55;55.49;102603.78;5053926;28;48211;-96
2021/09/30 11:18:59;;;;;;;;;0.00;0.00;;;;;15.57;55.83;102605.47;5063024;28;45691;-96
2021/09/30 11:21:31;;;;;;;;;1.00;0.75;;;;;15.59;57.07;102597.47;5059504;28;45383;-95
2021/09/30 11:24:05;;;;;;;;;0.75;0.75;;;;;15.61;57.40;102588.59;5043441;28;46380;-95
2021/09/30 11:26:51;;;;;;;;;0.00;0.00;;;;;15.63;57.19;102589.41;5061578;28;46192;-96
2021/09/30 11:29:30;;;;;;;;;0.00;0.00;;;;;15.64;55.69;102582.34;5056904;28;46126;-94
2021/09/30 11:31:58;;;;;;;;;1.25;0.00;;;;;15.71;55.58;102581.28;5062524;28;45248;-94
2021/09/30 11:34:34;;;;;;;;;0.25;0.00;;;;;15.70;56.67;102566.31;5054461;28;47100;-95
2021/09/30 11:37:15;;;;;;;;;1.00;0.00;;;;;15.77;55.97;102566.13;5061658;28;47128;-92
2021/09/30 11:39:40;;;;;;;;;0.00;0.00;;;;;15.74;55.08;102561.78;5060195;28;46047;-95
2021/09/30 11:42:06;;;;;;;;;1.00;0.00;;;;;15.75;54.68;102548.47;5071824;28;45165;-93
2021/09/30 11:44:32;;;;;;;;;0.25;0.00;;;;;15.80;54.58;102564.28;5056977;28;47259;-96
2021/09/30 11:46:59;;;;;;;;;0.75;0.25;;;;;15.81;54.77;102563.34;5077659;28;46199;-93
2021/09/30 11:49:26;;;;;;;;;2.00;1.00;;;;;15.83;54.01;102566.84;5066055;28;46737;-93
2021/09/30 11:51:56;;;;;;;;;1.00;1.00;;;;;15.83;54.71;102556.22;5062255;28;45465;-92
2021/09/30 11:54:24;;;;;;;;;0.00;0.00;;;;;15.84;54.48;102543.84;5061590;28;46045;-89
2021/09/30 11:56:55;;;;;;;;;0.50;0.50;;;;;15.91;54.39;102566.63;5049496;28;46383;-92
2021/09/30 11:59:23;;;;;;;;;0.00;0.00;;;;;15.93;53.78;102555.97;5075194;28;45516;-91
2021/09/30 12:01:53;;;;;;;;;1.00;1.00;;;;;15.94;54.38;102558.59;5052901;28;45344;-89
2021/09/30 12:04:43;;;;;;;;;0.00;0.00;;;;;15.95;54.49;102547.06;5076990;28;45218;-90
2021/09/30 12:07:19;;;;;;;;;2.75;0.25;;;;;16.00;54.28;102551.41;5058914;28;47308;-90
2021/09/30 12:09:46;;;;;;;;;1.50;0.50;;;;;16.02;54.79;102546.91;5048514;28;45351;-91
2021/09/30 12:12:11;;;;;;;;;1.00;1.00;;;;;16.00;53.77;102524.88;5066081;28;45348;-91
2021/09/30 12:14:39;;;;;;;;;1.00;1.00;;;;;16.03;52.51;102524.78;5080127;27;45345;-91
2021/09/30 12:17:08;;;;;;;;;1.75;0.00;;;;;16.06;52.97;102525.59;5068641;28;46357;-90
2021/09/30 12:19:36;;;;;;;;;0.00;0.00;;;;;16.06;53.50;102519.44;5083127;28;45225;-92
2021/09/30 12:22:08;;;;;;;;;1.75;0.00;;;;;16.11;53.19;102522.81;5065234;28;45353;-92
2021/09/30 12:24:34;;;;;;;;;4.75;0.00;;;;;16.08;53.42;102496.38;5062222;28;46976;-90
2021/09/30 12:27:00;;;;;;;;;0.50;0.00;;;;;16.13;53.59;102496.25;5064778;28;48270;-90
2021/09/30 12:29:25;;;;;;;;;0.00;0.00;;;;;16.14;53.23;102496.22;5083074;28;45452;-90
2021/09/30 12:32:05;;;;;;;;;1.00;1.00;;;;;16.20;52.79;102492.50;5082839;28;45468;-89
2021/09/30 12:34:31;;;;;;;;;0.00;0.00;;;;;16.21;53.53;102491.59;5083006;28;45266;-90
2021/09/30 12:36:56;;;;;;;;;0.00;0.00;;;;;16.18;52.80;102483.72;5083117;28;45585;-90
2021/09/30 12:39:27;;;;;;;;;0.00;0.00;;;;;16.20;51.61;102482.75;5082171;28;45259;-90
2021/09/30 12:41:55;;;;;;;;;1.00;1.00;;;;;16.20;52.13;102480.13;5083098;28;45306;-90
2021/09/30 12:44:21;;;;;;;;;1.50;0.00;;;;;16.18;51.49;102479.28;5071191;28;45220;-91
2021/09/30 12:46:51;;;;;;;;;0.00;0.00;;;;;16.24;50.69;102490.66;5063378;28;48377;-90
2021/09/30 12:49:17;;;;;;;;;0.25;0.25;;;;;16.27;51.05;102480.78;5082556;28;45400;-90
2021/09/30 12:51:43;;;;;;;;;0.00;0.00;;;;;16.25;51.60;102476.47;5064362;28;45446;-90
2021/09/30 12:54:08;;;;;;;;;2.75;0.00;;;;;16.27;50.62;102464.03;5063694;28;45973;-90
2021/09/30 12:56:34;;;;;;;;;0.00;0.00;;;;;16.31;51.22;102473.63;5061073;28;48113;-90
2021/09/30 12:59:14;;;;;;;;;0.00;0.00;;;;;16.30;50.62;102459.50;5082636;28;45228;-90
2021/09/30 13:01:42;;;;;;;;;0.00;0.00;;;;;16.33;51.05;102457.66;5055826;28;45454;-91
2021/09/30 13:04:12;;;;;;;;;0.00;0.00;;;;;16.34;49.65;102451.44;5076307;28;46353;-90
2021/09/30 13:06:41;;;;;;;;;0.00;0.00;;;;;16.34;50.25;102449.66;5081829;28;46470;-90
2021/09/30 13:09:19;;;;;;;;;1.00;0.00;;;;;16.38;51.13;102440.69;5058000;28;45595;-90
2021/09/30 13:11:50;;;;;;;;;0.00;0.00;;;;;16.39;51.09;102434.47;5065880;28;45300;-90
2021/09/30 13:14:35;;;;;;;;;1.00;0.00;;;;;16.44;50.96;102438.75;5082514;28;45491;-90
2021/09/30 13:17:03;;;;;;;;;0.00;0.00;;;;;16.52;51.35;102440.25;5081067;28;46321;-90
2021/09/30 13:19:43;;;;;;;;;0.00;0.00;;;;;16.56;49.89;102433.06;5082352;28;45317;-91
2021/09/30 13:22:11;;;;;;;;;0.75;0.75;;;;;16.56;50.14;102422.47;5082624;28;45412;-92
2021/09/30 13:24:39;;;;;;;;;0.00;0.00;;;;;16.58;50.42;102417.97;5080795;28;45464;-91
2021/09/30 13:27:07;;;;;;;;;0.00;0.00;;;;;16.57;50.68;102407.41;5062311;28;47273;-91
2021/09/30 13:29:32;;;;;;;;;0.00;0.00;;;;;16.61;50.73;102412.56;5093248;27;45525;-90
2021/09/30 13:31:58;;;;;;;;;0.00;0.00;;;;;16.61;50.34;102420.53;5083205;27;45234;-90
2021/09/30 13:34:24;;;;;;;;;1.25;0.25;;;;;16.63;49.60;102407.19;5063440;28;45822;-91
2021/09/30 13:36:49;;;;;;;;;0.25;0.25;;;;;16.68;49.14;102415.00;5082028;28;46416;-90
2021/09/30 13:39:16;;;;;;;;;2.00;0.25;;;;;16.68;48.98;102394.66;5063841;28;45325;-89
2021/09/30 13:41:41;;;;;;;;;0.50;0.00;;;;;16.72;49.89;102392.75;5072050;28;45330;-90
2021/09/30 13:44:07;;;;;;;;;1.00;0.00;;;;;16.78;50.05;102389.91;5086439;27;45300;-90
2021/09/30 13:46:34;;;;;;;;;0.75;0.75;;;;;16.79;50.33;102386.31;5089824;27;46099;-90
2021/09/30 13:48:59;;;;;;;;;0.25;0.00;;;;;16.82;49.52;102385.34;5085418;27;45219;-91
2021/09/30 13:51:27;;;;;;;;;0.00;0.00;;;;;16.84;48.99;102395.00;5063852;28;45556;-91
2021/09/30 13:53:53;;;;;;;;;0.50;0.00;;;;;16.80;49.40;102380.09;5081868;28;45173;-92
2021/09/30 13:56:18;;;;;;;;;0.00;0.00;;;;;16.86;50.19;102381.69;5081953;28;45263;-90
2021/09/30 13:58:44;;;;;;;;;1.00;0.00;;;;;16.88;49.98;102382.50;5080728;28;45420;-91
2021/09/30 14:01:09;;;;;;;;;0.00;0.00;;;;;16.85;47.95;102375.50;5081668;28;45306;-91
2021/09/30 14:03:34;;;;;;;;;0.00;0.00;;;;;16.85;47.90;102386.13;5073159;27;45479;-91
2021/09/30 14:06:01;;;;;;;;;0.00;0.00;;;;;16.84;48.05;102375.56;5068933;28;45385;-91
2021/09/30 14:08:28;;;;;;;;;1.00;1.00;;;;;16.85;47.85;102370.19;5081425;28;45362;-90
2021/09/30 14:10:54;;;;;;;;;0.00;0.00;;;;;16.87;48.86;102362.16;5063741;28;45667;-90
2021/09/30 14:13:19;;;;;;;;;1.25;0.00;;;;;16.92;50.09;102362.88;5081535;28;45168;-91
2021/09/30 14:15:45;;;;;;;;;0.00;0.00;;;;;16.96;47.85;102353.03;5081314;28;45331;-90
2021/09/30 14:18:11;;;;;;;;;0.25;0.00;;;;;17.03;49.01;102341.28;5080342;28;45461;-89
2021/09/30 14:20:37;;;;;;;;;0.00;0.00;;;;;17.01;48.65;102335.16;5080573;28;45216;-90
2021/09/30 14:23:04;;;;;;;;;1.75;0.25;;;;;16.98;49.16;102328.16;5059352;28;46461;-92
2021/09/30 14:25:29;;;;;;;;;0.00;0.00;;;;;17.02;48.63;102331.56;5060982;28;46059;-90
2021/09/30 14:27:55;;;;;;;;;0.75;0.50;;;;;16.99;47.42;102329.88;5079444;28;45511;-93
2021/09/30 14:30:20;;;;;;;;;0.00;0.00;;;;;16.96;46.90;102323.81;5050753;28;45403;-90
2021/09/30 14:32:46;;;;;;;;;0.00;0.00;;;;;16.95;47.31;102319.41;5081094;28;45383;-90
2021/09/30 14:35:13;;;;;;;;;0.00;0.00;;;;;17.01;47.28;102327.19;5081015;28;45391;-91
2021/09/30 14:37:39;;;;;;;;;0.00;0.00;;;;;16.98;47.83;102311.34;5081309;28;45346;-90
2021/09/30 14:40:05;;;;;;;;;1.00;0.00;;;;;16.96;48.30;102311.38;5080061;28;45235;-91
2021/09/30 14:42:30;;;;;;;;;0.00;0.00;;;;;16.96;47.68;102306.06;5079097;28;46453;-91
2021/09/30 14:44:57;;;;;;;;;0.25;0.00;;;;;16.94;49.46;102299.97;5068734;28;46242;-91
2021/09/30 14:47:23;;;;;;;;;2.00;0.75;;;;;16.95;48.40;102292.84;5080779;28;45680;-91
2021/09/30 14:49:48;;;;;;;;;0.00;0.00;;;;;16.92;48.88;102285.88;5062931;28;45503;-90
2021/09/30 14:52:14;;;;;;;;;1.00;0.00;;;;;16.98;46.65;102284.78;5062661;28;45671;-91
2021/09/30 14:54:40;;;;;;;;;0.00;0.00;;;;;16.93;47.54;102282.31;5079529;28;46061;-90
2021/09/30 14:57:06;;;;;;;;;0.00;0.00;;;;;16.93;47.45;102284.97;5080755;28;46020;-90
2021/09/30 14:59:32;;;;;;;;;0.00;0.00;;;;;16.94;48.47;102284.03;5073380;28;45357;-91
2021/09/30 15:01:57;;;;;;;;;2.75;0.00;;;;;16.97;48.73;102283.91;5073357;28;45370;-91
2021/09/30 15:04:23;;;;;;;;;2.00;0.00;;;;;16.97;48.18;102277.72;5061924;28;47196;-90
2021/09/30 15:06:49;;;;;;;;;1.00;0.00;;;;;16.98;48.16;102279.47;5079774;28;45339;-90
2021/09/30 15:09:15;;;;;;;;;1.00;1.00;;;;;16.97;48.52;102272.41;5065766;28;45247;-90
2021/09/30 15:11:40;;;;;;;;;1.00;0.00;;;;;16.99;48.63;102267.91;5061899;28;45915;-90
2021/09/30 15:14:07;;;;;;;;;1.25;0.00;;;;;17.02;48.57;102270.47;5050026;28;47566;-90
2021/09/30 15:16:35;;;;;;;;;0.25;0.00;;;;;17.05;49.01;102266.84;5061755;28;45763;-91
2021/09/30 15:19:05;;;;;;;;;1.00;0.00;;;;;17.08;48.44;102262.28;5080451;28;45369;-90
2021/09/30 15:21:32;;;;;;;;;1.00;0.00;;;;;17.14;47.96;102260.31;5062297;28;46989;-90
2021/09/30 15:24:02;;;;;;;;;0.00;0.00;;;;;17.14;49.68;102255.00;5061957;28;47097;-91
2021/09/30 15:26:28;;;;;;;;;0.00;0.00;;;;;17.20;48.51;102258.34;5073092;28;45298;-90
2021/09/30 15:28:54;;;;;;;;;0.00;0.00;;;;;17.22;48.42;102250.31;5058973;28;45444;-90
2021/09/30 15:31:22;;;;;;;;;0.00;0.00;;;;;17.22;48.76;102242.34;5051535;28;46184;-91
2021/09/30 15:33:48;;;;;;;;;0.25;0.00;;;;;17.23;48.63;102241.44;5066832;28;45592;-90
2021/09/30 15:36:14;;;;;;;;;0.50;0.00;;;;;17.26;48.70;102245.78;5080225;28;45257;-90
2021/09/30 15:38:41;;;;;;;;;0.75;0.00;;;;;17.23;48.80;102221.97;5080038;28;45417;-90
2021/09/30 15:41:07;;;;;;;;;1.00;1.00;;;;;17.25;48.17;102234.25;5058638;28;45972;-90
2021/09/30 15:43:32;;;;;;;;;0.00;0.00;;;;;17.27;48.07;102229.75;5075208;28;46282;-90
2021/09/30 15:46:00;;;;;;;;;1.00;0.00;;;;;17.31;48.71;102227.84;5069454;28;45320;-90
2021/09/30 15:48:26;;;;;;;;;0.00;0.00;;;;;17.26;48.28;102219.19;5080076;28;45366;-90
2021/09/30 15:50:51;;;;;;;;;0.00;0.00;;;;;17.34;48.62;102230.38;5060886;28;46002;-90
2021/09/30 15:53:17;;;;;;;;;0.75;0.75;;;;;17.30;47.94;102221.69;5046088;28;47763;-89
2021/09/30 15:55:42;;;;;;;;;1.00;1.00;;;;;17.30;47.61;102218.16;5063453;28;45199;-90
2021/09/30 15:58:07;;;;;;;;;1.00;0.00;;;;;17.26;48.11;102209.41;5080131;28;45287;-90
2021/09/30 16:00:33;;;;;;;;;0.00;0.00;;;;;17.25;48.19;102210.34;5061382;28;47193;-90
2021/09/30 16:02:58;;;;;;;;;0.75;0.00;;;;;17.25;49.63;102215.66;5060679;28;46037;-90
2021/09/30 16:05:24;;;;;;;;;0.75;0.75;;;;;17.26;48.77;102219.19;5079912;28;45401;-89
2021/09/30 16:07:49;;;;;;;;;0.00;0.00;;;;;17.20;48.39;102215.84;5080098;28;45478;-90
2021/09/30 16:10:14;;;;;;;;;2.00;1.00;;;;;17.21;47.77;102230.84;5061442;28;46206;-89
2021/09/30 16:12:40;;;;;;;;;2.00;0.00;;;;;17.15;47.88;102216.91;5064394;28;46440;-89
2021/09/30 16:15:07;;;;;;;;;0.50;0.00;;;;;17.09;47.85;102221.50;5077404;28;45302;-90
2021/09/30 16:17:32;;;;;;;;;0.00;0.00;;;;;17.05;47.72;102227.00;5073624;28;45490;-90
2021/09/30 16:19:58;;;;;;;;;0.00;0.00;;;;;17.01;48.25;102214.75;5076939;28;45347;-90
2021/09/30 16:22:23;;;;;;;;;1.00;0.00;;;;;16.94;48.04;102214.13;5061209;28;46979;-90
2021/09/30 16:24:50;;;;;;;;;1.25;0.00;;;;;16.93;48.70;102220.34;5078869;28;45429;-89
2021/09/30 16:27:15;;;;;;;;;0.00;0.00;;;;;16.89;48.84;102211.63;5079868;28;45215;-89
2021/09/30 16:29:41;;;;;;;;;0.00;0.00;;;;;16.84;47.90;102211.78;5069840;28;45234;-90
2021/09/30 16:32:09;;;;;;;;;1.00;1.00;;;;;16.79;47.24;102204.94;5048605;28;47322;-90
2021/09/30 16:34:35;;;;;;;;;2.50;1.00;;;;;16.74;47.62;102211.25;5051916;28;45574;-89
2021/09/30 16:37:00;;;;;;;;;1.00;0.00;;;;;16.72;48.20;102212.22;5079502;28;45328;-89
2021/09/30 16:39:25;;;;;;;;;1.00;1.00;;;;;16.67;48.68;102207.06;5061229;28;46081;-89
2021/09/30 16:41:51;;;;;;;;;0.75;0.50;;;;;16.64;48.80;102209.88;5079338;28;46163;-89
2021/09/30 16:44:16;;;;;;;;;1.00;1.00;;;;;16.60;48.67;102200.25;5078670;28;45530;-89
2021/09/30 16:46:42;;;;;;;;;0.00;0.00;;;;;16.59;48.55;102209.16;5061133;28;45268;-89
2021/09/30 16:49:08;;;;;;;;;0.00;0.00;;;;;16.53;48.64;102199.63;5059830;28;46151;-89
2021/09/30 16:51:33;;;;;;;;;3.25;1.50;;;;;16.51;49.07;102202.34;5070498;28;46042;-89
2021/09/30 16:53:58;;;;;;;;;2.25;1.25;;;;;16.48;49.27;102206.88;5060174;28;45405;-89
2021/09/30 16:56:24;;;;;;;;;4.25;1.75;;;;;16.41;49.54;102199.13;5061206;28;45875;-90